sensor_id;sensor_type;location;lat;lon;timestamp;temperature;humidity
72320;SHT30;60269;52.502;16.732;2023-12-22T00:00:24;5.02;77.59
72320;SHT30;60269;52.502;16.732;2023-12-22T00:04:16;5.05;77.07
72320;SHT30;60269;52.502;16.732;2023-12-22T00:07:48;4.98;77.39
72320;SHT30;60269;52.502;16.732;2023-12-22T00:11:20;4.82;78.84
72320;SHT30;60269;52.502;16.732;2023-12-22T00:14:52;4.68;79.72
72320;SHT30;60269;52.502;16.732;2023-12-22T00:18:24;4.69;79.46
72320;SHT30;60269;52.502;16.732;2023-12-22T00:21:56;4.60;80.02
72320;SHT30;60269;52.502;16.732;2023-12-22T00:25:30;4.51;80.78
72320;SHT30;60269;52.502;16.732;2023-12-22T00:29:01;4.53;80.94
72320;SHT30;60269;52.502;16.732;2023-12-22T00:32:33;4.56;79.95
72320;SHT30;60269;52.502;16.732;2023-12-22T00:36:05;4.67;78.95
72320;SHT30;60269;52.502;16.732;2023-12-22T00:39:37;4.78;77.83
72320;SHT30;60269;52.502;16.732;2023-12-22T00:43:09;4.74;77.21
72320;SHT30;60269;52.502;16.732;2023-12-22T00:46:41;4.85;75.92
72320;SHT30;60269;52.502;16.732;2023-12-22T00:50:14;4.92;75.32
72320;SHT30;60269;52.502;16.732;2023-12-22T00:53:47;4.82;76.40
72320;SHT30;60269;52.502;16.732;2023-12-22T00:57:19;4.87;75.80
72320;SHT30;60269;52.502;16.732;2023-12-22T01:00:50;4.85;75.98
72320;SHT30;60269;52.502;16.732;2023-12-22T01:04:22;4.79;76.17
72320;SHT30;60269;52.502;16.732;2023-12-22T01:07:54;4.84;75.58
72320;SHT30;60269;52.502;16.732;2023-12-22T01:11:26;4.74;76.57
72320;SHT30;60269;52.502;16.732;2023-12-22T01:14:58;4.84;75.59
72320;SHT30;60269;52.502;16.732;2023-12-22T01:18:30;4.89;75.20
72320;SHT30;60269;52.502;16.732;2023-12-22T01:22:03;4.88;75.45
72320;SHT30;60269;52.502;16.732;2023-12-22T01:25:35;4.74;76.67
72320;SHT30;60269;52.502;16.732;2023-12-22T01:29:07;4.65;77.27
72320;SHT30;60269;52.502;16.732;2023-12-22T01:32:39;4.58;77.25
72320;SHT30;60269;52.502;16.732;2023-12-22T01:36:11;4.54;77.70
72320;SHT30;60269;52.502;16.732;2023-12-22T01:39:43;4.54;77.27
72320;SHT30;60269;52.502;16.732;2023-12-22T01:43:15;4.48;77.87
72320;SHT30;60269;52.502;16.732;2023-12-22T01:46:49;4.50;77.33
72320;SHT30;60269;52.502;16.732;2023-12-22T01:50:23;4.47;78.35
72320;SHT30;60269;52.502;16.732;2023-12-22T01:53:55;4.51;77.47
72320;SHT30;60269;52.502;16.732;2023-12-22T01:57:27;4.53;77.18
72320;SHT30;60269;52.502;16.732;2023-12-22T02:01:01;4.68;76.05
72320;SHT30;60269;52.502;16.732;2023-12-22T02:04:33;4.58;76.54
72320;SHT30;60269;52.502;16.732;2023-12-22T02:08:05;4.67;76.11
72320;SHT30;60269;52.502;16.732;2023-12-22T02:11:38;4.68;75.74
72320;SHT30;60269;52.502;16.732;2023-12-22T02:15:10;4.61;76.40
72320;SHT30;60269;52.502;16.732;2023-12-22T02:18:43;4.65;75.92
72320;SHT30;60269;52.502;16.732;2023-12-22T02:22:16;4.58;75.63
72320;SHT30;60269;52.502;16.732;2023-12-22T02:25:50;4.62;75.07
72320;SHT30;60269;52.502;16.732;2023-12-22T02:29:30;4.47;76.66
72320;SHT30;60269;52.502;16.732;2023-12-22T02:33:04;4.50;76.19
72320;SHT30;60269;52.502;16.732;2023-12-22T02:36:38;4.54;74.56
72320;SHT30;60269;52.502;16.732;2023-12-22T02:40:14;4.62;73.44
72320;SHT30;60269;52.502;16.732;2023-12-22T02:43:46;4.71;71.63
72320;SHT30;60269;52.502;16.732;2023-12-22T02:47:19;4.74;70.51
72320;SHT30;60269;52.502;16.732;2023-12-22T02:50:51;4.64;71.34
72320;SHT30;60269;52.502;16.732;2023-12-22T02:54:24;4.68;70.26
72320;SHT30;60269;52.502;16.732;2023-12-22T02:57:56;4.65;69.33
72320;SHT30;60269;52.502;16.732;2023-12-22T03:01:28;4.61;69.48
72320;SHT30;60269;52.502;16.732;2023-12-22T03:05:01;4.67;68.35
72320;SHT30;60269;52.502;16.732;2023-12-22T03:08:33;4.54;69.15
72320;SHT30;60269;52.502;16.732;2023-12-22T03:12:06;4.54;69.17
72320;SHT30;60269;52.502;16.732;2023-12-22T03:15:38;4.51;68.52
72320;SHT30;60269;52.502;16.732;2023-12-22T03:19:10;4.43;68.06
72320;SHT30;60269;52.502;16.732;2023-12-22T03:22:43;4.36;66.72
72320;SHT30;60269;52.502;16.732;2023-12-22T03:26:15;4.40;64.23
72320;SHT30;60269;52.502;16.732;2023-12-22T03:29:47;4.39;64.44
72320;SHT30;60269;52.502;16.732;2023-12-22T03:33:19;4.24;65.63
72320;SHT30;60269;52.502;16.732;2023-12-22T03:36:51;4.19;66.13
72320;SHT30;60269;52.502;16.732;2023-12-22T03:40:23;4.23;64.32
72320;SHT30;60269;52.502;16.732;2023-12-22T03:43:55;4.30;62.05
72320;SHT30;60269;52.502;16.732;2023-12-22T03:47:27;4.33;61.55
72320;SHT30;60269;52.502;16.732;2023-12-22T03:50:59;4.46;61.32
72320;SHT30;60269;52.502;16.732;2023-12-22T03:54:31;4.37;62.84
72320;SHT30;60269;52.502;16.732;2023-12-22T03:58:03;4.11;65.33
72320;SHT30;60269;52.502;16.732;2023-12-22T04:01:36;4.13;65.51
72320;SHT30;60269;52.502;16.732;2023-12-22T04:05:11;4.21;65.64
72320;SHT30;60269;52.502;16.732;2023-12-22T04:08:43;4.06;67.11
72320;SHT30;60269;52.502;16.732;2023-12-22T04:12:16;3.88;68.76
72320;SHT30;60269;52.502;16.732;2023-12-22T04:15:48;3.75;67.72
72320;SHT30;60269;52.502;16.732;2023-12-22T04:19:19;3.72;67.16
72320;SHT30;60269;52.502;16.732;2023-12-22T04:22:52;3.74;66.40
72320;SHT30;60269;52.502;16.732;2023-12-22T04:26:23;3.77;64.45
72320;SHT30;60269;52.502;16.732;2023-12-22T04:29:56;3.88;62.56
72320;SHT30;60269;52.502;16.732;2023-12-22T04:33:27;3.85;61.03
72320;SHT30;60269;52.502;16.732;2023-12-22T04:36:59;3.67;62.01
72320;SHT30;60269;52.502;16.732;2023-12-22T04:40:31;3.47;62.73
72320;SHT30;60269;52.502;16.732;2023-12-22T04:44:04;3.37;63.15
72320;SHT30;60269;52.502;16.732;2023-12-22T04:47:36;3.28;64.45
72320;SHT30;60269;52.502;16.732;2023-12-22T04:51:08;3.24;65.03
72320;SHT30;60269;52.502;16.732;2023-12-22T04:54:40;3.34;65.76
72320;SHT30;60269;52.502;16.732;2023-12-22T04:58:12;3.37;66.21
72320;SHT30;60269;52.502;16.732;2023-12-22T05:01:44;3.24;67.68
72320;SHT30;60269;52.502;16.732;2023-12-22T05:05:17;3.34;70.46
72320;SHT30;60269;52.502;16.732;2023-12-22T05:08:49;3.38;72.33
72320;SHT30;60269;52.502;16.732;2023-12-22T05:12:21;3.26;74.68
72320;SHT30;60269;52.502;16.732;2023-12-22T05:15:53;3.23;75.86
72320;SHT30;60269;52.502;16.732;2023-12-22T05:19:25;3.23;76.54
72320;SHT30;60269;52.502;16.732;2023-12-22T05:22:57;3.23;76.84
72320;SHT30;60269;52.502;16.732;2023-12-22T05:26:30;3.27;77.04
72320;SHT30;60269;52.502;16.732;2023-12-22T05:30:04;3.24;77.47
72320;SHT30;60269;52.502;16.732;2023-12-22T05:33:36;3.26;77.91
72320;SHT30;60269;52.502;16.732;2023-12-22T05:37:08;3.28;77.10
72320;SHT30;60269;52.502;16.732;2023-12-22T05:40:41;3.16;77.56
72320;SHT30;60269;52.502;16.732;2023-12-22T05:44:13;3.06;77.58
72320;SHT30;60269;52.502;16.732;2023-12-22T05:47:45;2.95;78.06
72320;SHT30;60269;52.502;16.732;2023-12-22T05:51:17;2.85;78.39
72320;SHT30;60269;52.502;16.732;2023-12-22T05:54:49;2.85;78.06
72320;SHT30;60269;52.502;16.732;2023-12-22T05:58:21;2.92;77.15
72320;SHT30;60269;52.502;16.732;2023-12-22T06:01:53;3.00;76.23
72320;SHT30;60269;52.502;16.732;2023-12-22T06:05:27;2.82;77.23
72320;SHT30;60269;52.502;16.732;2023-12-22T06:08:59;2.83;76.68
72320;SHT30;60269;52.502;16.732;2023-12-22T06:12:31;2.91;76.16
72320;SHT30;60269;52.502;16.732;2023-12-22T06:16:03;2.97;75.38
72320;SHT30;60269;52.502;16.732;2023-12-22T06:19:36;2.88;75.92
72320;SHT30;60269;52.502;16.732;2023-12-22T06:23:08;2.99;75.80
72320;SHT30;60269;52.502;16.732;2023-12-22T06:26:40;3.06;75.83
72320;SHT30;60269;52.502;16.732;2023-12-22T06:30:13;3.03;76.55
72320;SHT30;60269;52.502;16.732;2023-12-22T06:33:44;3.10;76.78
72320;SHT30;60269;52.502;16.732;2023-12-22T06:37:17;3.06;77.62
72320;SHT30;60269;52.502;16.732;2023-12-22T06:40:49;3.10;78.12
72320;SHT30;60269;52.502;16.732;2023-12-22T06:44:22;3.16;78.11
72320;SHT30;60269;52.502;16.732;2023-12-22T06:47:55;3.24;77.88
72320;SHT30;60269;52.502;16.732;2023-12-22T06:51:29;3.40;77.07
72320;SHT30;60269;52.502;16.732;2023-12-22T06:55:08;3.45;76.01
72320;SHT30;60269;52.502;16.732;2023-12-22T06:58:40;3.50;76.28
72320;SHT30;60269;52.502;16.732;2023-12-22T07:02:12;3.45;76.48
72320;SHT30;60269;52.502;16.732;2023-12-22T07:05:52;3.41;77.24
72320;SHT30;60269;52.502;16.732;2023-12-22T07:12:56;3.52;77.29
72320;SHT30;60269;52.502;16.732;2023-12-22T07:16:28;3.45;77.65
72320;SHT30;60269;52.502;16.732;2023-12-22T07:20:00;3.51;77.55
72320;SHT30;60269;52.502;16.732;2023-12-22T07:23:35;3.21;81.09
72320;SHT30;60269;52.502;16.732;2023-12-22T07:27:07;2.82;84.20
72320;SHT30;60269;52.502;16.732;2023-12-22T07:30:39;2.63;85.25
72320;SHT30;60269;52.502;16.732;2023-12-22T07:34:10;2.63;84.48
72320;SHT30;60269;52.502;16.732;2023-12-22T07:37:42;2.93;82.47
72320;SHT30;60269;52.502;16.732;2023-12-22T07:41:15;3.03;80.82
72320;SHT30;60269;52.502;16.732;2023-12-22T07:44:48;2.58;84.05
72320;SHT30;60269;52.502;16.732;2023-12-22T07:48:20;2.34;85.29
72320;SHT30;60269;52.502;16.732;2023-12-22T07:51:53;2.42;83.97
72320;SHT30;60269;52.502;16.732;2023-12-22T07:55:25;2.51;82.79
72320;SHT30;60269;52.502;16.732;2023-12-22T07:58:57;2.82;78.86
72320;SHT30;60269;52.502;16.732;2023-12-22T08:02:49;3.12;76.11
72320;SHT30;60269;52.502;16.732;2023-12-22T08:06:21;3.33;75.18
72320;SHT30;60269;52.502;16.732;2023-12-22T08:09:53;3.31;75.41
72320;SHT30;60269;52.502;16.732;2023-12-22T08:13:25;3.26;75.58
72320;SHT30;60269;52.502;16.732;2023-12-22T08:16:57;3.17;78.20
72320;SHT30;60269;52.502;16.732;2023-12-22T08:20:29;2.76;89.38
72320;SHT30;60269;52.502;16.732;2023-12-22T08:24:08;1.87;89.27
72320;SHT30;60269;52.502;16.732;2023-12-22T08:27:42;1.18;94.51
72320;SHT30;60269;52.502;16.732;2023-12-22T08:31:14;0.86;96.29
72320;SHT30;60269;52.502;16.732;2023-12-22T08:34:46;1.03;94.53
72320;SHT30;60269;52.502;16.732;2023-12-22T08:38:19;1.27;91.18
72320;SHT30;60269;52.502;16.732;2023-12-22T08:41:51;1.77;88.65
72320;SHT30;60269;52.502;16.732;2023-12-22T08:45:24;1.93;88.54
72320;SHT30;60269;52.502;16.732;2023-12-22T08:48:55;2.21;86.75
72320;SHT30;60269;52.502;16.732;2023-12-22T08:52:28;2.75;83.15
72320;SHT30;60269;52.502;16.732;2023-12-22T08:56:00;2.93;82.71
72320;SHT30;60269;52.502;16.732;2023-12-22T08:59:32;2.89;82.60
72320;SHT30;60269;52.502;16.732;2023-12-22T09:03:04;2.95;81.66
72320;SHT30;60269;52.502;16.732;2023-12-22T09:06:38;2.88;83.00
72320;SHT30;60269;52.502;16.732;2023-12-22T09:10:10;2.89;82.03
72320;SHT30;60269;52.502;16.732;2023-12-22T09:13:44;2.91;81.96
72320;SHT30;60269;52.502;16.732;2023-12-22T09:17:16;2.92;81.71
72320;SHT30;60269;52.502;16.732;2023-12-22T09:20:48;3.07;80.42
72320;SHT30;60269;52.502;16.732;2023-12-22T09:24:20;3.16;80.17
72320;SHT30;60269;52.502;16.732;2023-12-22T09:27:52;3.28;79.30
72320;SHT30;60269;52.502;16.732;2023-12-22T09:31:24;3.37;78.56
72320;SHT30;60269;52.502;16.732;2023-12-22T09:34:57;3.34;78.58
72320;SHT30;60269;52.502;16.732;2023-12-22T09:38:31;3.24;79.75
72320;SHT30;60269;52.502;16.732;2023-12-22T09:42:04;3.40;78.12
72320;SHT30;60269;52.502;16.732;2023-12-22T09:45:37;3.60;77.79
72320;SHT30;60269;52.502;16.732;2023-12-22T09:49:10;3.69;76.86
72320;SHT30;60269;52.502;16.732;2023-12-22T09:52:43;3.68;77.54
72320;SHT30;60269;52.502;16.732;2023-12-22T09:56:17;3.61;77.70
72320;SHT30;60269;52.502;16.732;2023-12-22T09:59:51;3.58;77.75
72320;SHT30;60269;52.502;16.732;2023-12-22T10:03:24;3.60;77.52
72320;SHT30;60269;52.502;16.732;2023-12-22T10:06:58;3.62;76.91
72320;SHT30;60269;52.502;16.732;2023-12-22T10:10:33;3.57;77.92
72320;SHT30;60269;52.502;16.732;2023-12-22T10:14:05;3.51;77.01
72320;SHT30;60269;52.502;16.732;2023-12-22T10:17:37;3.54;76.99
72320;SHT30;60269;52.502;16.732;2023-12-22T10:21:09;3.61;75.86
72320;SHT30;60269;52.502;16.732;2023-12-22T10:24:43;3.61;75.86
72320;SHT30;60269;52.502;16.732;2023-12-22T10:28:15;3.68;76.20
72320;SHT30;60269;52.502;16.732;2023-12-22T10:31:47;3.61;76.00
72320;SHT30;60269;52.502;16.732;2023-12-22T10:35:23;3.47;77.68
72320;SHT30;60269;52.502;16.732;2023-12-22T10:38:55;3.38;77.95
72320;SHT30;60269;52.502;16.732;2023-12-22T10:42:27;3.33;78.91
72320;SHT30;60269;52.502;16.732;2023-12-22T10:46:00;3.41;78.15
72320;SHT30;60269;52.502;16.732;2023-12-22T10:49:32;3.77;75.00
72320;SHT30;60269;52.502;16.732;2023-12-22T10:53:06;3.83;74.60
72320;SHT30;60269;52.502;16.732;2023-12-22T10:56:39;3.82;74.58
72320;SHT30;60269;52.502;16.732;2023-12-22T11:00:14;3.92;74.33
72320;SHT30;60269;52.502;16.732;2023-12-22T11:03:51;3.93;74.31
72320;SHT30;60269;52.502;16.732;2023-12-22T11:07:23;3.96;72.97
72320;SHT30;60269;52.502;16.732;2023-12-22T11:10:58;3.99;73.66
72320;SHT30;60269;52.502;16.732;2023-12-22T11:14:35;4.03;73.44
72320;SHT30;60269;52.502;16.732;2023-12-22T11:18:08;4.07;73.45
72320;SHT30;60269;52.502;16.732;2023-12-22T11:21:43;4.00;73.51
72320;SHT30;60269;52.502;16.732;2023-12-22T11:25:16;4.05;73.19
72320;SHT30;60269;52.502;16.732;2023-12-22T11:28:50;3.99;73.52
72320;SHT30;60269;52.502;16.732;2023-12-22T11:32:23;3.82;74.50
72320;SHT30;60269;52.502;16.732;2023-12-22T11:35:56;3.61;77.92
72320;SHT30;60269;52.502;16.732;2023-12-22T11:39:29;3.72;76.14
72320;SHT30;60269;52.502;16.732;2023-12-22T11:43:02;3.78;75.65
72320;SHT30;60269;52.502;16.732;2023-12-22T11:46:35;3.72;76.26
72320;SHT30;60269;52.502;16.732;2023-12-22T11:50:10;3.62;76.94
72320;SHT30;60269;52.502;16.732;2023-12-22T11:53:44;3.51;77.74
72320;SHT30;60269;52.502;16.732;2023-12-22T11:57:29;3.60;76.14
72320;SHT30;60269;52.502;16.732;2023-12-22T12:01:03;3.67;76.44
72320;SHT30;60269;52.502;16.732;2023-12-22T12:04:36;3.79;75.59
72320;SHT30;60269;52.502;16.732;2023-12-22T12:08:08;3.89;73.25
72320;SHT30;60269;52.502;16.732;2023-12-22T12:15:33;4.13;71.98
72320;SHT30;60269;52.502;16.732;2023-12-22T12:19:08;4.14;71.10
72320;SHT30;60269;52.502;16.732;2023-12-22T12:22:45;4.19;69.69
72320;SHT30;60269;52.502;16.732;2023-12-22T12:26:18;4.17;69.03
72320;SHT30;60269;52.502;16.732;2023-12-22T12:29:50;4.17;69.77
72320;SHT30;60269;52.502;16.732;2023-12-22T12:33:23;4.09;69.66
72320;SHT30;60269;52.502;16.732;2023-12-22T12:36:55;4.09;69.57
72320;SHT30;60269;52.502;16.732;2023-12-22T12:40:27;4.16;68.22
72320;SHT30;60269;52.502;16.732;2023-12-22T12:44:04;4.09;69.79
72320;SHT30;60269;52.502;16.732;2023-12-22T12:47:37;4.10;68.05
72320;SHT30;60269;52.502;16.732;2023-12-22T12:51:11;4.14;68.42
72320;SHT30;60269;52.502;16.732;2023-12-22T12:54:43;4.07;69.35
72320;SHT30;60269;52.502;16.732;2023-12-22T12:58:15;4.11;68.66
72320;SHT30;60269;52.502;16.732;2023-12-22T13:01:48;4.23;66.78
72320;SHT30;60269;52.502;16.732;2023-12-22T13:05:24;4.29;66.79
72320;SHT30;60269;52.502;16.732;2023-12-22T13:08:56;4.23;67.35
72320;SHT30;60269;52.502;16.732;2023-12-22T13:12:28;4.24;66.95
72320;SHT30;60269;52.502;16.732;2023-12-22T13:16:00;4.32;66.07
72320;SHT30;60269;52.502;16.732;2023-12-22T13:19:32;4.26;66.20
72320;SHT30;60269;52.502;16.732;2023-12-22T13:23:04;4.26;66.57
72320;SHT30;60269;52.502;16.732;2023-12-22T13:26:37;4.20;66.40
72320;SHT30;60269;52.502;16.732;2023-12-22T13:30:10;4.32;65.30
72320;SHT30;60269;52.502;16.732;2023-12-22T13:33:42;4.24;65.72
72320;SHT30;60269;52.502;16.732;2023-12-22T13:37:14;4.26;65.86
72320;SHT30;60269;52.502;16.732;2023-12-22T13:40:47;4.26;65.34
72320;SHT30;60269;52.502;16.732;2023-12-22T13:44:19;4.26;64.87
72320;SHT30;60269;52.502;16.732;2023-12-22T13:47:51;4.32;64.43
72320;SHT30;60269;52.502;16.732;2023-12-22T13:51:24;4.40;63.41
72320;SHT30;60269;52.502;16.732;2023-12-22T13:54:56;4.36;64.01
72320;SHT30;60269;52.502;16.732;2023-12-22T13:58:43;4.40;62.93
72320;SHT30;60269;52.502;16.732;2023-12-22T14:02:15;4.36;62.65
72320;SHT30;60269;52.502;16.732;2023-12-22T14:05:48;4.30;63.31
72320;SHT30;60269;52.502;16.732;2023-12-22T14:09:21;4.26;62.66
72320;SHT30;60269;52.502;16.732;2023-12-22T14:12:56;4.21;63.36
72320;SHT30;60269;52.502;16.732;2023-12-22T14:16:28;4.19;63.14
72320;SHT30;60269;52.502;16.732;2023-12-22T14:20:00;4.11;63.65
72320;SHT30;60269;52.502;16.732;2023-12-22T14:23:33;4.09;64.09
72320;SHT30;60269;52.502;16.732;2023-12-22T14:27:06;4.00;63.10
72320;SHT30;60269;52.502;16.732;2023-12-22T14:30:37;4.00;62.67
72320;SHT30;60269;52.502;16.732;2023-12-22T14:34:12;4.07;61.03
72320;SHT30;60269;52.502;16.732;2023-12-22T14:37:44;4.06;61.60
72320;SHT30;60269;52.502;16.732;2023-12-22T14:41:18;3.99;62.88
72320;SHT30;60269;52.502;16.732;2023-12-22T14:44:50;3.85;63.62
72320;SHT30;60269;52.502;16.732;2023-12-22T14:48:22;3.82;63.99
72320;SHT30;60269;52.502;16.732;2023-12-22T14:51:54;3.74;65.28
72320;SHT30;60269;52.502;16.732;2023-12-22T14:55:29;3.67;65.85
72320;SHT30;60269;52.502;16.732;2023-12-22T14:59:01;3.72;65.38
72320;SHT30;60269;52.502;16.732;2023-12-22T15:02:33;3.69;66.20
72320;SHT30;60269;52.502;16.732;2023-12-22T15:06:06;3.65;65.99
72320;SHT30;60269;52.502;16.732;2023-12-22T15:09:40;3.58;67.13
72320;SHT30;60269;52.502;16.732;2023-12-22T15:13:13;3.58;67.05
72320;SHT30;60269;52.502;16.732;2023-12-22T15:16:45;3.57;67.03
72320;SHT30;60269;52.502;16.732;2023-12-22T15:20:18;3.61;65.73
72320;SHT30;60269;52.502;16.732;2023-12-22T15:23:53;3.58;65.42
72320;SHT30;60269;52.502;16.732;2023-12-22T15:27:26;3.58;62.30
72320;SHT30;60269;52.502;16.732;2023-12-22T15:30:59;3.54;64.06
72320;SHT30;60269;52.502;16.732;2023-12-22T15:34:30;3.51;62.95
72320;SHT30;60269;52.502;16.732;2023-12-22T15:38:03;3.48;62.86
72320;SHT30;60269;52.502;16.732;2023-12-22T15:41:35;3.50;62.89
72320;SHT30;60269;52.502;16.732;2023-12-22T15:45:07;3.61;62.35
72320;SHT30;60269;52.502;16.732;2023-12-22T15:48:40;3.55;63.24
72320;SHT30;60269;52.502;16.732;2023-12-22T15:52:11;3.45;64.30
72320;SHT30;60269;52.502;16.732;2023-12-22T15:55:43;3.52;63.64
72320;SHT30;60269;52.502;16.732;2023-12-22T15:59:15;3.38;64.46
72320;SHT30;60269;52.502;16.732;2023-12-22T16:02:47;3.34;65.68
72320;SHT30;60269;52.502;16.732;2023-12-22T16:06:20;3.19;69.24
72320;SHT30;60269;52.502;16.732;2023-12-22T16:09:52;3.14;69.34
72320;SHT30;60269;52.502;16.732;2023-12-22T16:13:24;3.14;68.91
72320;SHT30;60269;52.502;16.732;2023-12-22T16:17:01;3.13;68.63
72320;SHT30;60269;52.502;16.732;2023-12-22T16:20:33;3.14;67.70
72320;SHT30;60269;52.502;16.732;2023-12-22T16:24:05;3.13;67.16
72320;SHT30;60269;52.502;16.732;2023-12-22T16:27:37;3.19;66.97
72320;SHT30;60269;52.502;16.732;2023-12-22T16:31:09;3.20;66.11
72320;SHT30;60269;52.502;16.732;2023-12-22T16:34:42;3.28;65.16
72320;SHT30;60269;52.502;16.732;2023-12-22T16:38:18;3.35;62.59
72320;SHT30;60269;52.502;16.732;2023-12-22T16:41:50;3.41;61.21
72320;SHT30;60269;52.502;16.732;2023-12-22T16:45:26;3.31;61.69
72320;SHT30;60269;52.502;16.732;2023-12-22T16:48:58;3.28;62.09
72320;SHT30;60269;52.502;16.732;2023-12-22T16:52:30;3.21;61.88
72320;SHT30;60269;52.502;16.732;2023-12-22T16:56:02;3.12;63.77
72320;SHT30;60269;52.502;16.732;2023-12-22T16:59:34;3.02;66.67
72320;SHT30;60269;52.502;16.732;2023-12-22T17:03:06;2.75;68.31
72320;SHT30;60269;52.502;16.732;2023-12-22T17:06:53;2.56;69.45
72320;SHT30;60269;52.502;16.732;2023-12-22T17:10:26;2.62;70.01
72320;SHT30;60269;52.502;16.732;2023-12-22T17:13:59;2.56;71.57
72320;SHT30;60269;52.502;16.732;2023-12-22T17:17:31;2.46;70.85
72320;SHT30;60269;52.502;16.732;2023-12-22T17:21:06;2.21;71.92
72320;SHT30;60269;52.502;16.732;2023-12-22T17:24:40;2.28;70.98
72320;SHT30;60269;52.502;16.732;2023-12-22T17:28:15;2.52;68.14
72320;SHT30;60269;52.502;16.732;2023-12-22T17:31:47;2.38;69.35
72320;SHT30;60269;52.502;16.732;2023-12-22T17:35:21;2.34;69.32
72320;SHT30;60269;52.502;16.732;2023-12-22T17:38:53;2.33;70.33
72320;SHT30;60269;52.502;16.732;2023-12-22T17:42:25;2.42;69.52
72320;SHT30;60269;52.502;16.732;2023-12-22T17:45:57;2.46;71.15
72320;SHT30;60269;52.502;16.732;2023-12-22T17:49:29;2.42;72.76
72320;SHT30;60269;52.502;16.732;2023-12-22T17:53:02;2.21;74.08
72320;SHT30;60269;52.502;16.732;2023-12-22T17:56:34;2.30;73.82
72320;SHT30;60269;52.502;16.732;2023-12-22T18:00:06;2.33;74.14
72320;SHT30;60269;52.502;16.732;2023-12-22T18:03:39;2.24;74.83
72320;SHT30;60269;52.502;16.732;2023-12-22T18:07:11;2.14;75.21
72320;SHT30;60269;52.502;16.732;2023-12-22T18:10:43;2.13;75.50
72320;SHT30;60269;52.502;16.732;2023-12-22T18:14:15;2.15;76.07
72320;SHT30;60269;52.502;16.732;2023-12-22T18:17:47;2.15;76.18
72320;SHT30;60269;52.502;16.732;2023-12-22T18:21:21;2.07;76.13
72320;SHT30;60269;52.502;16.732;2023-12-22T18:24:53;1.92;76.30
72320;SHT30;60269;52.502;16.732;2023-12-22T18:28:25;1.97;75.41
72320;SHT30;60269;52.502;16.732;2023-12-22T18:31:57;2.07;75.16
72320;SHT30;60269;52.502;16.732;2023-12-22T18:35:29;2.17;73.79
72320;SHT30;60269;52.502;16.732;2023-12-22T18:39:03;2.28;72.15
72320;SHT30;60269;52.502;16.732;2023-12-22T18:42:35;2.33;72.02
72320;SHT30;60269;52.502;16.732;2023-12-22T18:46:07;2.28;71.64
72320;SHT30;60269;52.502;16.732;2023-12-22T18:49:39;2.24;71.58
72320;SHT30;60269;52.502;16.732;2023-12-22T18:53:11;2.30;70.34
72320;SHT30;60269;52.502;16.732;2023-12-22T18:56:44;2.23;70.76
72320;SHT30;60269;52.502;16.732;2023-12-22T19:00:18;2.33;70.50
72320;SHT30;60269;52.502;16.732;2023-12-22T19:03:50;2.34;70.79
72320;SHT30;60269;52.502;16.732;2023-12-22T19:07:22;2.42;69.82
72320;SHT30;60269;52.502;16.732;2023-12-22T19:10:54;2.58;69.09
72320;SHT30;60269;52.502;16.732;2023-12-22T19:14:26;2.61;68.73
72320;SHT30;60269;52.502;16.732;2023-12-22T19:17:58;2.66;68.00
72320;SHT30;60269;52.502;16.732;2023-12-22T19:21:31;2.68;67.86
72320;SHT30;60269;52.502;16.732;2023-12-22T19:25:03;2.62;68.32
72320;SHT30;60269;52.502;16.732;2023-12-22T19:28:35;2.62;68.46
72320;SHT30;60269;52.502;16.732;2023-12-22T19:32:07;2.65;67.65
72320;SHT30;60269;52.502;16.732;2023-12-22T19:35:39;2.56;68.51
72320;SHT30;60269;52.502;16.732;2023-12-22T19:39:12;2.27;69.96
72320;SHT30;60269;52.502;16.732;2023-12-22T19:42:44;2.14;70.46
72320;SHT30;60269;52.502;16.732;2023-12-22T19:46:16;2.04;70.19
72320;SHT30;60269;52.502;16.732;2023-12-22T19:49:48;2.00;70.34
72320;SHT30;60269;52.502;16.732;2023-12-22T19:53:20;1.82;71.67
72320;SHT30;60269;52.502;16.732;2023-12-22T19:56:52;1.75;71.79
72320;SHT30;60269;52.502;16.732;2023-12-22T20:00:24;1.86;71.61
72320;SHT30;60269;52.502;16.732;2023-12-22T20:03:57;1.97;70.83
72320;SHT30;60269;52.502;16.732;2023-12-22T20:07:30;2.04;71.34
72320;SHT30;60269;52.502;16.732;2023-12-22T20:11:02;2.11;70.86
72320;SHT30;60269;52.502;16.732;2023-12-22T20:14:36;2.21;70.65
72320;SHT30;60269;52.502;16.732;2023-12-22T20:18:08;2.31;69.55
72320;SHT30;60269;52.502;16.732;2023-12-22T20:21:40;2.30;70.22
72320;SHT30;60269;52.502;16.732;2023-12-22T20:25:13;2.33;69.29
72320;SHT30;60269;52.502;16.732;2023-12-22T20:28:45;2.30;70.05
72320;SHT30;60269;52.502;16.732;2023-12-22T20:32:17;2.25;70.13
72320;SHT30;60269;52.502;16.732;2023-12-22T20:35:49;2.34;68.75
72320;SHT30;60269;52.502;16.732;2023-12-22T20:39:21;2.31;68.60
72320;SHT30;60269;52.502;16.732;2023-12-22T20:42:53;2.31;67.86
72320;SHT30;60269;52.502;16.732;2023-12-22T20:46:25;2.25;67.48
72320;SHT30;60269;52.502;16.732;2023-12-22T20:49:57;2.13;68.16
72320;SHT30;60269;52.502;16.732;2023-12-22T20:53:30;1.96;67.93
72320;SHT30;60269;52.502;16.732;2023-12-22T20:57:02;1.80;68.53
72320;SHT30;60269;52.502;16.732;2023-12-22T21:00:39;1.75;68.57
72320;SHT30;60269;52.502;16.732;2023-12-22T21:04:10;1.75;68.85
72320;SHT30;60269;52.502;16.732;2023-12-22T21:07:43;1.62;69.92
72320;SHT30;60269;52.502;16.732;2023-12-22T21:11:20;1.46;70.60
72320;SHT30;60269;52.502;16.732;2023-12-22T21:14:53;1.41;70.29
72320;SHT30;60269;52.502;16.732;2023-12-22T21:18:25;1.45;70.28
72320;SHT30;60269;52.502;16.732;2023-12-22T21:21:58;1.39;70.69
72320;SHT30;60269;52.502;16.732;2023-12-22T21:25:29;1.49;70.20
72320;SHT30;60269;52.502;16.732;2023-12-22T21:29:02;1.30;71.62
72320;SHT30;60269;52.502;16.732;2023-12-22T21:32:36;1.23;72.13
72320;SHT30;60269;52.502;16.732;2023-12-22T21:36:19;1.09;72.93
72320;SHT30;60269;52.502;16.732;2023-12-22T21:39:51;1.07;73.30
72320;SHT30;60269;52.502;16.732;2023-12-22T21:43:24;1.05;73.44
72320;SHT30;60269;52.502;16.732;2023-12-22T21:46:56;1.25;72.72
72320;SHT30;60269;52.502;16.732;2023-12-22T21:50:28;1.05;73.56
72320;SHT30;60269;52.502;16.732;2023-12-22T21:54:00;1.13;73.42
72320;SHT30;60269;52.502;16.732;2023-12-22T21:57:33;1.03;74.10
72320;SHT30;60269;52.502;16.732;2023-12-22T22:01:05;0.94;74.52
72320;SHT30;60269;52.502;16.732;2023-12-22T22:04:37;0.94;74.98
72320;SHT30;60269;52.502;16.732;2023-12-22T22:08:12;0.94;74.94
72320;SHT30;60269;52.502;16.732;2023-12-22T22:11:44;0.91;75.59
72320;SHT30;60269;52.502;16.732;2023-12-22T22:15:16;0.94;75.38
72320;SHT30;60269;52.502;16.732;2023-12-22T22:18:48;1.09;74.15
72320;SHT30;60269;52.502;16.732;2023-12-22T22:22:20;0.91;75.23
72320;SHT30;60269;52.502;16.732;2023-12-22T22:25:52;0.96;75.79
72320;SHT30;60269;52.502;16.732;2023-12-22T22:29:24;1.07;76.03